Time;durP1;ratioP1;P1;durP2;ratioP2;P2;SDS_P1;SDS_P2;PMS_P1;PMS_P2;Temp;Humidity;BMP_temperature;BMP_pressure;BME280_temperature;BME280_humidity;BME280_pressure;Samples;Min_cycle;Max_cycle;Signal;HPM_P1;HPM_P2
2020/12/02 00:00:15;;;;;;;17.85;13.07;;;;;;;6.13;91.40;102174.25;5062064;28;20032;-68
2020/12/02 00:02:58;;;;;;;20.02;12.70;;;;;;;6.11;91.42;102168.16;5062030;28;20104;-68
2020/12/02 00:05:24;;;;;;;17.13;13.27;;;;;;;5.89;90.89;102133.28;5063332;28;20453;-68
2020/12/02 00:08:20;;;;;;;14.88;12.38;;;;;;;6.15;91.06;102168.84;5035822;28;20048;-68
2020/12/02 00:10:45;;;;;;;19.05;12.20;;;;;;;6.10;91.49;102179.72;5052154;28;20056;-68
2020/12/02 00:13:14;;;;;;;17.55;12.80;;;;;;;6.16;90.75;102175.84;5062259;28;20064;-69
2020/12/02 00:15:40;;;;;;;15.85;12.65;;;;;;;6.15;91.05;102183.91;5062025;28;20142;-69
2020/12/02 00:18:06;;;;;;;19.23;13.50;;;;;;;6.12;90.84;102175.19;5063953;28;20133;-66
2020/12/02 00:20:32;;;;;;;18.80;13.00;;;;;;;6.07;90.79;102166.63;5063346;28;20051;-67
2020/12/02 00:22:57;;;;;;;20.02;13.80;;;;;;;6.13;91.03;102171.59;5059252;28;20351;-69
2020/12/02 00:25:23;;;;;;;16.30;13.07;;;;;;;6.12;91.31;102176.97;5065028;28;20127;-68
2020/12/02 00:27:49;;;;;;;18.75;13.18;;;;;;;6.11;91.40;102172.59;5062691;28;20119;-68
2020/12/02 00:30:14;;;;;;;18.92;14.30;;;;;;;6.08;91.21;102180.75;5045403;28;20063;-68
2020/12/02 00:32:42;;;;;;;17.23;13.57;;;;;;;6.08;91.82;102178.09;5060922;28;20446;-68
2020/12/02 00:35:09;;;;;;;18.23;13.47;;;;;;;5.32;91.90;102056.19;5045705;28;20032;-68
2020/12/02 00:37:34;;;;;;;19.98;14.55;;;;;;;6.05;91.36;102184.41;5064149;28;22462;-68
2020/12/02 00:40:00;;;;;;;21.33;14.40;;;;;;;6.06;91.70;102180.00;5064201;28;20127;-68
2020/12/02 00:42:26;;;;;;;19.88;13.82;;;;;;;6.06;91.50;102177.34;5061628;28;20071;-68
2020/12/02 00:44:51;;;;;;;19.80;15.25;;;;;;;6.06;91.75;102177.34;5061763;28;20047;-68
2020/12/02 00:47:19;;;;;;;21.42;14.95;;;;;;;6.08;91.82;102188.72;5061789;28;20068;-69
2020/12/02 00:49:46;;;;;;;24.17;15.10;;;;;;;6.09;91.30;102180.66;5042517;28;20032;-66
2020/12/02 00:52:12;;;;;;;20.23;14.77;;;;;;;6.10;91.27;102177.06;5059326;28;20562;-68
2020/12/02 00:54:38;;;;;;;19.58;13.40;;;;;;;6.13;91.59;102168.06;5046952;28;20135;-67
2020/12/02 00:57:03;;;;;;;20.38;14.30;;;;;;;5.95;91.58;102159.38;5063076;28;20040;-68
2020/12/02 00:59:29;;;;;;;18.63;14.23;;;;;;;5.95;91.51;102167.34;5061204;28;20033;-68
2020/12/02 01:02:14;;;;;;;19.80;14.75;;;;;;;6.09;91.14;102179.81;5035961;28;20075;-68
2020/12/02 01:04:41;;;;;;;18.70;14.70;;;;;;;6.06;91.52;102172.03;5037753;28;20101;-67
2020/12/02 01:07:07;;;;;;;22.30;15.07;;;;;;;6.09;91.36;102174.53;5054063;28;20684;-67
2020/12/02 01:09:32;;;;;;;20.95;13.60;;;;;;;6.06;91.80;102172.88;5054148;28;20348;-67
2020/12/02 01:11:59;;;;;;;19.73;14.18;;;;;;;6.08;92.05;102181.59;5067809;28;20157;-67
2020/12/02 01:14:25;;;;;;;16.35;13.45;;;;;;;6.01;91.55;102160.84;5072161;28;20375;-67
2020/12/02 01:16:52;;;;;;;19.98;13.43;;;;;;;6.08;91.58;102168.34;5038329;28;20059;-67
2020/12/02 01:19:26;;;;;;;19.75;14.07;;;;;;;6.01;91.62;102155.53;5039456;28;20045;-67
2020/12/02 01:22:20;;;;;;;18.10;14.05;;;;;;;6.10;91.62;102173.56;5036078;28;20040;-67
2020/12/02 01:25:04;;;;;;;21.25;14.55;;;;;;;5.99;91.71;102155.63;5049180;28;20045;-68
2020/12/02 01:27:32;;;;;;;21.27;14.50;;;;;;;6.07;91.58;102174.59;5040851;28;20559;-74
2020/12/02 01:29:58;;;;;;;21.20;14.40;;;;;;;6.05;91.64;102181.78;5051978;28;20142;-68
2020/12/02 01:32:23;;;;;;;24.10;15.50;;;;;;;6.04;91.86;102177.41;5055841;28;20055;-68
2020/12/02 01:34:50;;;;;;;24.25;15.60;;;;;;;5.97;91.62;102158.34;5058374;28;20039;-68
2020/12/02 01:37:36;;;;;;;21.23;14.77;;;;;;;6.06;92.35;102172.88;5041421;28;20082;-67
2020/12/02 01:40:13;;;;;;;19.60;14.70;;;;;;;6.06;92.27;102164.94;5057045;28;20614;-68
2020/12/02 01:42:40;;;;;;;22.20;15.20;;;;;;;5.78;92.24;102121.47;5061802;28;20340;-68
2020/12/02 01:45:20;;;;;;;19.95;15.45;;;;;;;6.08;92.16;102176.28;5056913;28;20043;-68
2020/12/02 01:47:52;;;;;;;20.42;14.57;;;;;;;6.06;91.92;102170.22;5062653;28;20024;-68
2020/12/02 01:50:39;;;;;;;24.23;15.88;;;;;;;6.04;92.05;102168.63;5058710;28;20123;-68
2020/12/02 01:53:20;;;;;;;22.88;15.73;;;;;;;6.04;91.91;102179.22;5041940;28;20051;-68
2020/12/02 01:56:01;;;;;;;22.42;15.85;;;;;;;6.02;92.83;102171.38;5060431;28;20352;-68
2020/12/02 01:58:48;;;;;;;25.35;15.82;;;;;;;6.04;93.02;102174.75;5059801;28;20456;-68
2020/12/02 02:01:21;;;;;;;28.00;17.30;;;;;;;6.03;92.35;102173.09;5055628;28;20036;-67
2020/12/02 02:03:47;;;;;;;22.48;16.55;;;;;;;6.03;92.13;102172.22;5054696;28;20036;-66
2020/12/02 02:06:22;;;;;;;24.40;15.88;;;;;;;6.03;92.17;102166.91;5037887;28;20619;-73
2020/12/02 02:08:48;;;;;;;23.77;15.40;;;;;;;6.04;92.18;102165.97;5044953;28;20044;-67
2020/12/02 02:11:18;;;;;;;24.75;16.42;;;;;;;6.01;92.03;102172.31;5040948;28;20025;-68
2020/12/02 02:13:54;;;;;;;21.27;15.88;;;;;;;6.00;92.46;102170.59;5060813;28;20495;-68
2020/12/02 02:16:21;;;;;;;23.63;16.85;;;;;;;5.74;92.38;102129.72;5060727;28;20306;-69
2020/12/02 02:18:47;;;;;;;24.80;16.03;;;;;;;5.96;92.04;102164.63;5053630;28;20433;-73
2020/12/02 02:21:15;;;;;;;22.60;15.45;;;;;;;5.87;92.38;102151.03;5036778;28;20074;-73
2020/12/02 02:23:41;;;;;;;24.58;16.90;;;;;;;5.82;92.00;102148.69;5052564;28;20672;-68
2020/12/02 02:26:25;;;;;;;26.40;16.42;;;;;;;5.94;92.57;102160.31;5060297;28;20024;-73
2020/12/02 02:28:54;;;;;;;23.00;16.38;;;;;;;5.91;92.46;102165.81;5060664;28;20021;-68
2020/12/02 02:31:21;;;;;;;23.80;16.58;;;;;;;5.91;92.84;102164.03;5060655;28;20226;-68
2020/12/02 02:33:49;;;;;;;25.23;17.20;;;;;;;5.92;92.55;102160.44;5039064;28;20037;-68
2020/12/02 02:36:16;;;;;;;23.27;16.33;;;;;;;5.91;92.40;102156.06;5078236;28;20433;-73
2020/12/02 02:38:42;;;;;;;26.15;17.75;;;;;;;5.89;92.85;102157.94;5059611;28;20040;-73
2020/12/02 02:41:08;;;;;;;27.27;18.25;;;;;;;5.88;92.57;102156.25;5058984;28;20516;-74
2020/12/02 02:43:34;;;;;;;28.48;18.20;;;;;;;5.87;93.05;102149.22;5060873;28;20056;-74
2020/12/02 02:45:59;;;;;;;27.95;17.20;;;;;;;5.88;93.11;102147.47;5059543;28;20590;-74
2020/12/02 02:48:25;;;;;;;24.70;17.55;;;;;;;5.90;92.54;102148.22;5059277;28;20155;-73
2020/12/02 02:50:50;;;;;;;24.45;17.55;;;;;;;5.90;92.50;102143.75;5062350;28;20845;-69
2020/12/02 02:53:18;;;;;;;27.80;17.85;;;;;;;5.88;92.80;102136.84;5065306;28;20135;-69
2020/12/02 02:55:44;;;;;;;24.40;16.77;;;;;;;5.92;92.69;102138.38;5064262;28;20036;-69
2020/12/02 02:58:09;;;;;;;27.60;18.10;;;;;;;5.88;93.03;102135.03;5064876;28;20083;-66
2020/12/02 03:00:35;;;;;;;24.45;17.65;;;;;;;5.88;93.02;102137.69;5063428;28;20163;-67
2020/12/02 03:03:01;;;;;;;26.77;18.08;;;;;;;5.76;92.75;102109.28;5061064;28;20806;-67
2020/12/02 03:05:27;;;;;;;25.55;17.48;;;;;;;5.91;92.32;102134.00;5059705;28;20071;-68
2020/12/02 03:07:57;;;;;;;26.27;17.02;;;;;;;5.87;92.40;102138.63;5065528;28;20037;-67
2020/12/02 03:10:25;;;;;;;25.95;17.02;;;;;;;5.88;92.78;102136.84;5063770;28;20444;-67
2020/12/02 03:12:51;;;;;;;26.38;17.50;;;;;;;5.83;93.10;102131.84;5058242;28;20040;-68
2020/12/02 03:15:17;;;;;;;24.38;17.38;;;;;;;5.82;92.51;102133.63;5031106;28;20199;-67
2020/12/02 03:17:42;;;;;;;26.00;17.92;;;;;;;5.81;92.28;102123.97;5046681;28;20099;-67
2020/12/02 03:20:15;;;;;;;28.83;18.83;;;;;;;5.69;93.00;102098.19;5064282;28;20566;-67
2020/12/02 03:22:40;;;;;;;26.50;17.92;;;;;;;5.83;92.46;102122.06;5038962;28;20044;-67
2020/12/02 03:25:06;;;;;;;26.25;17.70;;;;;;;5.85;93.10;102123.78;5046017;28;20114;-67
2020/12/02 03:27:31;;;;;;;28.35;18.30;;;;;;;5.80;93.20;102134.66;5047442;28;20115;-67
2020/12/02 03:29:57;;;;;;;28.23;18.95;;;;;;;5.78;93.18;102126.78;5066744;28;20115;-68
2020/12/02 03:32:22;;;;;;;29.15;18.15;;;;;;;5.79;93.17;102139.09;5061846;28;20486;-69
2020/12/02 03:34:48;;;;;;;28.77;18.15;;;;;;;5.81;92.80;102137.19;5063785;28;20187;-69
2020/12/02 03:37:13;;;;;;;27.30;18.85;;;;;;;5.77;93.25;102118.94;5046380;28;20067;-68
2020/12/02 03:39:39;;;;;;;27.38;19.55;;;;;;;5.19;93.32;102040.19;5051853;28;20075;-68
2020/12/02 03:42:04;;;;;;;31.85;19.55;;;;;;;5.73;93.23;102128.00;5060762;28;20036;-69
2020/12/02 03:44:30;;;;;;;28.85;19.58;;;;;;;5.72;93.78;102134.25;5078790;28;20040;-73
2020/12/02 03:46:55;;;;;;;30.25;19.95;;;;;;;5.70;93.47;102134.34;5063482;28;20549;-69
2020/12/02 03:49:21;;;;;;;28.88;19.23;;;;;;;5.29;93.66;102063.44;5072691;28;20091;-69
2020/12/02 03:51:46;;;;;;;31.35;19.83;;;;;;;5.71;93.83;102124.59;5059608;28;20124;-68
2020/12/02 03:54:12;;;;;;;31.55;19.92;;;;;;;5.70;94.05;102126.38;5061699;28;20123;-69
2020/12/02 03:56:37;;;;;;;29.58;19.65;;;;;;;5.72;94.25;102121.84;5065180;28;20041;-68
2020/12/02 03:59:03;;;;;;;31.58;20.98;;;;;;;5.74;93.79;102119.09;5064439;28;20390;-68
2020/12/02 04:01:29;;;;;;;28.25;18.92;;;;;;;5.74;93.55;102127.94;5059720;28;20466;-67
2020/12/02 04:03:54;;;;;;;31.05;20.38;;;;;;;5.71;93.57;102125.44;5063549;28;20103;-68
2020/12/02 04:06:20;;;;;;;26.83;18.10;;;;;;;5.73;93.57;102128.00;5063470;28;20127;-68
2020/12/02 04:08:45;;;;;;;32.10;19.85;;;;;;;5.73;93.29;102133.28;5062548;28;20376;-68
2020/12/02 04:11:11;;;;;;;32.00;20.58;;;;;;;5.63;93.57;102103.88;5059925;28;20127;-68
2020/12/02 04:13:37;;;;;;;30.83;20.35;;;;;;;5.71;93.56;102106.91;5032836;28;20109;-73
2020/12/02 04:16:02;;;;;;;33.25;21.35;;;;;;;5.71;93.37;102104.25;5062080;28;20046;-68
2020/12/02 04:18:28;;;;;;;28.35;19.70;;;;;;;5.74;93.26;102108.50;5062098;28;20079;-68
2020/12/02 04:20:54;;;;;;;32.53;20.05;;;;;;;5.72;93.21;102095.38;5060791;28;20037;-68
2020/12/02 04:23:19;;;;;;;30.98;20.08;;;;;;;5.72;93.28;102100.66;5063942;28;20072;-68
2020/12/02 04:25:45;;;;;;;32.28;21.42;;;;;;;5.70;93.38;102091.13;5064721;28;20124;-68
2020/12/02 04:28:10;;;;;;;33.85;21.15;;;;;;;5.69;92.86;102084.13;5064412;28;20119;-68
2020/12/02 04:30:36;;;;;;;33.92;21.73;;;;;;;5.65;93.31;102092.22;5064685;28;20592;-68
2020/12/02 04:33:01;;;;;;;33.03;20.67;;;;;;;5.65;93.60;102094.88;5061710;28;20119;-68
2020/12/02 04:35:27;;;;;;;34.63;22.20;;;;;;;5.64;93.77;102098.47;5062834;28;20123;-68
2020/12/02 04:37:52;;;;;;;34.20;21.48;;;;;;;5.63;93.39;102091.47;5080311;28;20055;-68
2020/12/02 04:40:34;;;;;;;34.67;22.17;;;;;;;5.65;93.72;102092.22;5063835;28;20111;-68
2020/12/02 04:43:31;;;;;;;34.95;21.42;;;;;;;5.65;93.88;102099.31;5062650;28;20036;-68
2020/12/02 04:45:57;;;;;;;27.33;18.83;;;;;;;5.66;93.47;102093.94;5055931;28;20264;-68
2020/12/02 04:48:29;;;;;;;34.20;20.42;;;;;;;5.52;92.81;102072.72;5042945;28;20107;-68
2020/12/02 04:51:13;;;;;;;32.80;20.92;;;;;;;5.70;92.80;102099.06;5046189;28;20115;-67
2020/12/02 04:53:39;;;;;;;32.97;20.70;;;;;;;5.67;93.03;102086.84;5056592;28;20093;-67
2020/12/02 04:56:05;;;;;;;34.67;20.73;;;;;;;5.67;93.08;102090.34;5047192;28;20032;-68
2020/12/02 04:58:32;;;;;;;31.40;21.20;;;;;;;5.62;93.37;102080.97;5064679;28;20029;-67
2020/12/02 05:01:19;;;;;;;37.58;22.75;;;;;;;5.63;93.02;102090.63;5061516;28;20041;-68
2020/12/02 05:03:47;;;;;;;34.28;20.98;;;;;;;5.54;93.15;102072.63;5062453;28;20426;-68
2020/12/02 05:06:16;;;;;;;36.80;21.92;;;;;;;5.59;93.44;102083.81;5036080;28;20032;-68
2020/12/02 05:08:41;;;;;;;34.45;21.70;;;;;;;5.54;93.16;102086.72;5044343;28;20074;-68
2020/12/02 05:11:08;;;;;;;41.95;23.00;;;;;;;5.55;93.46;102083.13;5052421;28;20298;-69
2020/12/02 05:13:34;;;;;;;34.00;21.65;;;;;;;5.52;93.92;102078.84;5060729;28;20045;-68
2020/12/02 05:16:10;;;;;;;35.75;22.20;;;;;;;5.52;93.56;102078.00;5063254;28;20525;-68
2020/12/02 05:18:36;;;;;;;35.45;22.27;;;;;;;5.52;93.81;102076.19;5062430;28;20094;-68
2020/12/02 05:21:21;;;;;;;37.83;22.50;;;;;;;5.47;94.04;102073.00;5041328;28;20227;-68
2020/12/02 05:24:04;;;;;;;37.53;22.83;;;;;;;5.35;93.01;102058.66;5055184;28;20044;-68
2020/12/02 05:26:35;;;;;;;37.30;22.92;;;;;;;5.34;93.89;102056.94;5039669;28;20237;-69
2020/12/02 05:29:04;;;;;;;37.38;23.35;;;;;;;5.44;94.02;102067.00;5044614;28;20119;-69
2020/12/02 05:31:31;;;;;;;39.88;23.05;;;;;;;5.46;94.26;102067.75;5042235;28;20375;-69
2020/12/02 05:34:08;;;;;;;36.07;22.67;;;;;;;5.47;93.50;102067.69;5062082;28;20039;-69
2020/12/02 05:36:35;;;;;;;35.65;22.30;;;;;;;5.49;93.41;102064.94;5042411;28;20044;-68
2020/12/02 05:39:28;;;;;;;37.45;22.75;;;;;;;5.40;93.99;102052.25;5042949;28;20098;-68
2020/12/02 05:41:53;;;;;;;36.78;21.52;;;;;;;5.38;93.72;102048.84;5037517;28;20039;-68
2020/12/02 05:44:23;;;;;;;37.83;22.42;;;;;;;5.50;93.60;102059.53;5026558;28;20484;-68
2020/12/02 05:46:55;;;;;;;36.72;22.40;;;;;;;5.50;93.09;102056.06;5062208;28;20115;-67
2020/12/02 05:49:41;;;;;;;38.63;22.70;;;;;;;5.47;93.63;102054.44;5059872;28;20024;-68
2020/12/02 05:52:37;;;;;;;35.85;22.13;;;;;;;5.45;93.89;102053.69;5040439;28;20056;-68
2020/12/02 05:55:15;;;;;;;37.83;23.02;;;;;;;5.44;93.60;102048.47;5057999;28;20327;-69
2020/12/02 05:57:42;;;;;;;37.13;22.92;;;;;;;5.47;93.85;102043.00;5052850;28;20093;-68
2020/12/02 06:00:11;;;;;;;37.28;23.63;;;;;;;5.44;93.66;102044.03;5059676;28;20029;-68
2020/12/02 06:02:37;;;;;;;41.50;24.10;;;;;;;5.41;93.68;102040.72;5053196;28;20039;-68
2020/12/02 06:05:06;;;;;;;35.55;23.33;;;;;;;5.41;93.71;102038.91;5026301;28;20395;-68
2020/12/02 06:07:44;;;;;;;39.13;23.85;;;;;;;5.41;94.10;102040.72;5045074;28;20035;-68
2020/12/02 06:10:10;;;;;;;39.90;24.42;;;;;;;5.41;94.25;102040.72;5043354;28;20411;-69
2020/12/02 06:12:41;;;;;;;41.50;24.30;;;;;;;5.40;93.90;102039.84;5021244;28;20087;-68
2020/12/02 06:15:08;;;;;;;37.05;23.27;;;;;;;5.41;94.10;102038.91;5070748;28;20035;-68
2020/12/02 06:17:33;;;;;;;39.15;23.52;;;;;;;5.41;94.14;102035.44;5055549;28;20078;-68
2020/12/02 06:19:59;;;;;;;37.10;24.23;;;;;;;5.41;93.84;102041.56;5061297;28;20049;-68
2020/12/02 06:22:43;;;;;;;40.15;23.77;;;;;;;5.41;94.10;102048.66;5058700;28;20111;-69
2020/12/02 06:25:47;;;;;;;38.95;23.77;;;;;;;5.41;93.68;102040.72;5061811;28;20166;-68
2020/12/02 06:28:14;;;;;;;36.60;22.33;;;;;;;5.32;93.58;102020.94;5059682;28;20036;-68
2020/12/02 06:30:42;;;;;;;39.78;24.02;;;;;;;5.39;93.38;102038.16;5052202;28;20064;-69
2020/12/02 06:33:18;;;;;;;36.08;23.58;;;;;;;5.43;93.32;102044.13;5057411;28;20068;-68
2020/12/02 06:35:44;;;;;;;43.33;26.00;;;;;;;5.36;93.72;102033.06;5059393;28;20052;-68
2020/12/02 06:38:28;;;;;;;37.42;23.45;;;;;;;5.34;93.84;102033.13;5037784;28;20105;-68
2020/12/02 06:40:57;;;;;;;43.85;24.92;;;;;;;5.34;94.19;102032.28;5057062;28;20049;-68
2020/12/02 06:43:24;;;;;;;42.13;25.70;;;;;;;5.30;93.59;102026.28;5062150;28;20112;-68
2020/12/02 06:45:49;;;;;;;39.58;24.58;;;;;;;5.20;94.07;101998.66;5033799;28;20041;-68
2020/12/02 06:48:24;;;;;;;41.53;25.23;;;;;;;5.31;93.28;102024.53;5059582;28;20131;-68
2020/12/02 06:50:49;;;;;;;42.92;26.13;;;;;;;5.32;94.14;102028.88;5058520;28;20020;-68
2020/12/02 06:53:19;;;;;;;38.90;25.02;;;;;;;5.32;93.82;102029.72;5042295;28;20108;-67
2020/12/02 06:55:45;;;;;;;43.85;25.85;;;;;;;5.33;93.76;102025.28;5061310;28;20032;-68
2020/12/02 06:58:13;;;;;;;44.05;25.17;;;;;;;5.19;93.61;101995.19;5060241;28;20080;-68
2020/12/02 07:00:46;;;;;;;39.45;24.35;;;;;;;5.37;93.81;102024.13;5059512;28;20033;-68
2020/12/02 07:03:25;;;;;;;45.47;24.73;;;;;;;5.35;93.42;102021.59;5074844;28;20071;-68
2020/12/02 07:06:17;;;;;;;39.35;24.10;;;;;;;5.38;93.65;102022.38;5053865;28;20043;-68
2020/12/02 07:08:42;;;;;;;42.08;24.65;;;;;;;5.36;93.28;102023.31;5048242;28;20045;-67
2020/12/02 07:11:17;;;;;;;40.97;24.40;;;;;;;5.39;93.13;102026.72;5058431;28;20091;-68
2020/12/02 07:13:46;;;;;;;44.13;24.88;;;;;;;5.40;94.04;102026.63;5049904;28;20055;-68
2020/12/02 07:16:24;;;;;;;41.50;24.45;;;;;;;5.43;93.81;102025.59;5062908;28;20029;-69
2020/12/02 07:19:00;;;;;;;42.30;24.27;;;;;;;5.40;93.74;102023.97;5057672;28;20097;-68
2020/12/02 07:21:46;;;;;;;41.72;25.50;;;;;;;5.21;93.80;102000.38;5059824;28;20047;-69
2020/12/02 07:24:28;;;;;;;41.55;24.02;;;;;;;5.40;94.04;102026.63;5054454;28;20040;-69
2020/12/02 07:26:56;;;;;;;43.42;25.88;;;;;;;5.17;93.80;101985.59;5057087;28;20048;-72
2020/12/02 07:29:24;;;;;;;42.00;24.60;;;;;;;5.39;93.05;102014.31;5041816;28;20040;-68
2020/12/02 07:32:19;;;;;;;42.38;25.52;;;;;;;5.42;93.70;102018.59;5061083;28;20085;-68
2020/12/02 07:34:45;;;;;;;41.03;24.40;;;;;;;5.16;93.34;101983.91;5063111;28;20323;-68
2020/12/02 07:37:13;;;;;;;41.55;24.92;;;;;;;5.41;93.92;102020.38;5067371;28;20126;-68
2020/12/02 07:40:04;;;;;;;41.10;25.17;;;;;;;5.40;92.78;102025.78;5072904;28;20056;-68
2020/12/02 07:42:40;;;;;;;41.45;26.05;;;;;;;5.40;92.44;102023.13;5064158;28;20041;-67
2020/12/02 07:45:14;;;;;;;42.35;25.55;;;;;;;5.37;93.12;102018.84;5070711;28;20408;-68
2020/12/02 07:47:51;;;;;;;39.25;23.65;;;;;;;5.15;92.84;101988.34;5060070;28;20081;-68
2020/12/02 07:50:34;;;;;;;40.08;24.63;;;;;;;5.41;93.00;102022.19;5063129;28;20077;-68
2020/12/02 07:53:06;;;;;;;42.20;24.60;;;;;;;5.41;93.10;102016.91;5063621;28;20047;-67
2020/12/02 07:55:46;;;;;;;41.40;23.52;;;;;;;5.39;93.68;102022.25;5029117;28;20173;-68
2020/12/02 07:58:18;;;;;;;45.13;26.02;;;;;;;5.15;93.36;101974.28;5040203;28;20071;-68
2020/12/02 08:00:44;;;;;;;40.42;25.02;;;;;;;5.43;93.28;102021.16;5028245;28;20086;-68
2020/12/02 08:03:36;;;;;;;43.63;25.98;;;;;;;5.47;93.92;102025.31;5041038;28;20056;-68
2020/12/02 08:06:10;;;;;;;44.55;26.85;;;;;;;5.48;93.98;102012.94;5058745;28;20040;-66
2020/12/02 08:08:35;;;;;;;43.78;25.30;;;;;;;5.48;93.85;102005.84;5058639;28;20037;-68
2020/12/02 08:11:03;;;;;;;43.92;24.92;;;;;;;5.43;93.91;101988.53;5055287;28;20342;-67
2020/12/02 08:13:28;;;;;;;43.40;26.17;;;;;;;5.46;93.42;101990.97;5040190;28;20444;-67
2020/12/02 08:15:56;;;;;;;39.22;24.45;;;;;;;5.48;93.69;101997.91;5043897;28;20107;-68
2020/12/02 08:18:23;;;;;;;40.80;24.00;;;;;;;5.48;93.07;101991.75;5077752;28;20045;-69
2020/12/02 08:20:49;;;;;;;41.95;24.05;;;;;;;5.46;93.11;101996.28;5057731;28;20237;-69
2020/12/02 08:23:26;;;;;;;44.15;26.25;;;;;;;5.40;93.03;101976.31;5051070;28;20028;-69
2020/12/02 08:25:59;;;;;;;42.17;24.88;;;;;;;4.82;93.40;101882.72;5080604;28;20178;-69
2020/12/02 08:28:26;;;;;;;40.72;24.65;;;;;;;5.45;92.60;101991.91;5060783;28;20040;-68
2020/12/02 08:31:23;;;;;;;46.38;26.67;;;;;;;4.96;92.80;101903.91;5057096;28;20044;-69
2020/12/02 08:34:11;;;;;;;46.75;27.13;;;;;;;5.45;93.11;101978.69;5059796;28;20040;-69
2020/12/02 08:36:37;;;;;;;;;;;;;;;5.41;93.59;101978.03;5063082;28;20085;-69
2020/12/02 08:39:03;;;;;;;43.55;24.42;;;;;;;5.41;93.93;101980.66;5059257;28;20361;-68
2020/12/02 08:41:40;;;;;;;42.25;24.13;;;;;;;5.43;93.20;101975.31;5052975;28;20198;-68
2020/12/02 08:44:10;;;;;;;43.33;25.98;;;;;;;5.40;93.12;101978.97;5040985;28;20028;-71
2020/12/02 08:46:54;;;;;;;46.65;26.63;;;;;;;5.43;92.57;101970.00;5058586;28;20049;-70
2020/12/02 08:49:23;;;;;;;41.55;25.73;;;;;;;5.42;93.65;101968.31;5061377;28;20462;-69
2020/12/02 08:51:48;;;;;;;43.58;26.02;;;;;;;5.38;93.15;101964.97;5043232;28;20036;-70
2020/12/02 08:54:14;;;;;;;44.78;26.00;;;;;;;5.41;94.07;101964.78;5060771;28;20590;-69
2020/12/02 08:56:40;;;;;;;45.20;26.73;;;;;;;5.43;93.63;101967.38;5057617;28;20040;-69
2020/12/02 08:59:11;;;;;;;45.10;26.48;;;;;;;5.43;93.24;101959.41;5057420;28;20119;-69
2020/12/02 09:01:37;;;;;;;45.42;26.13;;;;;;;5.46;93.49;101960.09;5054626;28;20047;-69
2020/12/02 09:04:03;;;;;;;46.15;26.80;;;;;;;5.49;93.49;101951.97;5058822;28;20044;-69
2020/12/02 09:06:28;;;;;;;41.58;25.40;;;;;;;5.53;93.41;101944.66;5064401;28;20120;-76
2020/12/02 09:08:55;;;;;;;42.47;26.08;;;;;;;5.55;92.56;101941.91;5061817;28;20067;-69
2020/12/02 09:11:30;;;;;;;44.33;26.65;;;;;;;5.56;93.06;101938.34;5055829;28;20309;-69
2020/12/02 09:13:55;;;;;;;49.72;26.88;;;;;;;5.56;92.59;101947.16;5061732;28;20044;-68
2020/12/02 09:16:29;;;;;;;44.67;26.73;;;;;;;5.33;93.07;101900.88;5072772;28;20486;-68
2020/12/02 09:18:54;;;;;;;44.55;26.00;;;;;;;5.60;92.72;101940.69;5058549;28;20602;-75
2020/12/02 09:21:21;;;;;;;47.95;27.23;;;;;;;5.59;92.69;101927.56;5056202;28;20289;-74
2020/12/02 09:23:47;;;;;;;44.38;26.42;;;;;;;5.64;93.20;101931.63;5061040;28;20036;-68
2020/12/02 09:26:20;;;;;;;47.30;26.80;;;;;;;5.62;92.69;101933.50;5053824;28;20486;-73
2020/12/02 09:28:46;;;;;;;43.70;25.85;;;;;;;5.64;92.88;101928.97;5063159;28;20499;-69
2020/12/02 09:31:11;;;;;;;45.15;26.00;;;;;;;5.66;92.08;101935.03;5058602;28;20111;-68
2020/12/02 09:33:37;;;;;;;42.40;24.98;;;;;;;5.68;91.53;101926.97;5059207;28;20064;-68
2020/12/02 09:36:03;;;;;;;46.92;26.30;;;;;;;5.47;92.58;101885.00;5060830;28;20538;-69
2020/12/02 09:38:28;;;;;;;43.33;25.45;;;;;;;5.72;92.48;101931.16;5055028;28;20506;-69
2020/12/02 09:40:54;;;;;;;46.17;26.48;;;;;;;5.73;92.13;101922.25;5057388;28;20028;-69
2020/12/02 09:43:31;;;;;;;45.42;26.23;;;;;;;5.67;92.77;101906.75;5061017;28;20407;-68
2020/12/02 09:46:06;;;;;;;45.67;26.83;;;;;;;5.75;92.21;101923.03;5039778;28;20032;-69
2020/12/02 09:48:32;;;;;;;48.67;27.50;;;;;;;5.75;92.95;101916.88;5057832;28;20522;-69
2020/12/02 09:50:57;;;;;;;43.80;25.65;;;;;;;5.66;92.22;101908.56;5058625;28;20275;-69
2020/12/02 09:53:25;;;;;;;43.35;26.48;;;;;;;5.82;91.85;101919.03;5056605;28;20039;-70
2020/12/02 09:55:51;;;;;;;44.90;25.92;;;;;;;5.85;91.90;101917.97;5060879;28;20103;-70
2020/12/02 09:58:17;;;;;;;42.42;25.05;;;;;;;5.88;91.52;101916.97;5061735;28;20131;-69
2020/12/02 10:00:42;;;;;;;37.70;23.60;;;;;;;4.99;91.20;101766.19;5056785;28;20033;-69
2020/12/02 10:03:30;;;;;;;43.55;24.85;;;;;;;5.97;90.43;101905.78;5057642;28;20052;-69
2020/12/02 10:06:27;;;;;;;38.10;24.50;;;;;;;6.01;90.17;101890.56;5059910;28;20048;-69
2020/12/02 10:09:11;;;;;;;37.80;23.67;;;;;;;6.03;89.40;101886.88;5060307;28;20032;-69
2020/12/02 10:12:11;;;;;;;39.22;23.67;;;;;;;6.08;89.13;101891.88;5051593;28;20491;-69
2020/12/02 10:15:05;;;;;;;43.58;24.65;;;;;;;6.06;89.58;101888.47;5058507;28;20063;-75
2020/12/02 10:17:55;;;;;;;38.15;23.55;;;;;;;6.03;89.83;101891.31;5061923;28;20036;-70
2020/12/02 10:20:40;;;;;;;41.20;24.83;;;;;;;5.67;89.90;101830.81;5058142;28;20065;-70
2020/12/02 10:23:20;;;;;;;39.55;23.92;;;;;;;6.05;89.76;101886.78;5057663;28;20039;-69
2020/12/02 10:26:10;;;;;;;40.63;23.90;;;;;;;6.05;90.33;101890.25;5060054;28;20093;-70
2020/12/02 10:29:02;;;;;;;39.17;23.75;;;;;;;6.01;90.34;101874.66;5051516;28;20032;-70
2020/12/02 10:31:39;;;;;;;39.67;23.73;;;;;;;6.04;89.54;101874.47;5035417;28;20029;-70
2020/12/02 10:34:24;;;;;;;41.45;25.08;;;;;;;5.47;89.43;101773.81;5061481;28;20119;-70
2020/12/02 10:36:56;;;;;;;36.35;23.08;;;;;;;6.11;89.28;101862.50;5073719;28;20078;-69
2020/12/02 10:39:28;;;;;;;36.78;23.80;;;;;;;6.07;88.93;101861.03;5056986;28;20448;-69
2020/12/02 10:42:18;;;;;;;34.20;22.10;;;;;;;6.07;89.58;101848.63;5056190;28;20542;-69
2020/12/02 10:45:02;;;;;;;35.78;22.55;;;;;;;6.12;88.61;101843.88;5061754;28;20032;-70
2020/12/02 10:48:05;;;;;;;32.85;21.88;;;;;;;6.15;88.00;101839.34;5060433;28;20036;-69
2020/12/02 10:50:32;;;;;;;33.95;21.30;;;;;;;5.98;88.40;101812.09;5064272;28;20131;-69
2020/12/02 10:53:00;;;;;;;38.67;24.30;;;;;;;6.05;88.58;101833.78;5055482;28;20328;-69
2020/12/02 10:55:29;;;;;;;48.65;26.13;;;;;;;5.95;90.35;101831.69;5059752;28;20574;-69
2020/12/02 10:58:05;;;;;;;49.45;27.65;;;;;;;5.97;91.90;101821.81;5049372;28;20036;-69
2020/12/02 11:00:32;;;;;;;45.63;25.70;;;;;;;5.95;91.05;101815.81;5061950;28;20474;-69
2020/12/02 11:03:18;;;;;;;43.40;25.52;;;;;;;5.96;91.23;101808.69;5058682;28;20128;-69
2020/12/02 11:05:47;;;;;;;43.80;25.95;;;;;;;5.98;91.06;101804.16;5061744;28;20033;-69
2020/12/02 11:08:31;;;;;;;46.03;27.90;;;;;;;6.03;90.88;101803.88;5045611;28;20028;-70
2020/12/02 11:11:19;;;;;;;47.20;25.35;;;;;;;6.00;90.04;101799.63;5061948;28;20507;-69
2020/12/02 11:13:58;;;;;;;45.05;26.70;;;;;;;6.00;90.48;101794.34;5064560;28;20063;-69
2020/12/02 11:16:34;;;;;;;45.83;26.02;;;;;;;5.83;90.49;101753.84;5065524;28;20227;-75
2020/12/02 11:19:32;;;;;;;44.95;26.70;;;;;;;6.05;90.02;101784.25;5061619;28;20384;-75
2020/12/02 11:22:14;;;;;;;48.88;27.20;;;;;;;6.04;90.41;101779.91;5014637;28;20041;-70
2020/12/02 11:24:45;;;;;;;45.72;26.55;;;;;;;6.04;90.41;101776.44;5069226;28;20044;-70
2020/12/02 11:27:11;;;;;;;45.13;26.40;;;;;;;6.06;90.03;101764.75;5065531;28;20075;-72
2020/12/02 11:29:36;;;;;;;41.33;25.33;;;;;;;6.10;89.96;101768.91;5066460;28;20064;-76
2020/12/02 11:32:49;;;;;;;43.70;25.60;;;;;;;6.13;89.72;101763.44;5061666;28;20131;-70
2020/12/02 11:35:31;;;;;;;41.03;25.00;;;;;;;6.11;89.76;101746.78;4994222;28;20033;-70
2020/12/02 11:38:11;;;;;;;42.63;25.13;;;;;;;6.14;89.14;101745.72;5023946;28;20045;-69